Time;durP1;ratioP1;P1;durP2;ratioP2;P2;SDS_P1;SDS_P2;PMS_P1;PMS_P2;Temp;Humidity;BMP_temperature;BMP_pressure;BME280_temperature;BME280_humidity;BME280_pressure;Samples;Min_cycle;Max_cycle;Signal;HPM_P1;HPM_P2
2023/12/06 00:00:44;;;;;;;110.93;43.60;;;;;;;-3.41;100.00;100560.57;4783250;59;1143204;-75
2023/12/06 00:05:51;;;;;;;109.20;42.78;;;;;;;-3.46;100.00;100558.06;4801514;58;1145267;-78
2023/12/06 00:10:57;;;;;;;93.50;40.27;;;;;;;-3.46;100.00;100559.36;4782897;58;1144933;-74
2023/12/06 00:16:03;;;;;;;112.27;42.33;;;;;;;-3.44;100.00;100557.59;4737832;59;1142827;-75
2023/12/06 00:21:09;;;;;;;119.60;46.63;;;;;;;-3.41;100.00;100561.86;4741815;58;1145114;-78
2023/12/06 00:26:15;;;;;;;105.60;46.90;;;;;;;-3.42;100.00;100567.47;4850029;58;1144887;-75
2023/12/06 00:31:20;;;;;;;100.03;44.37;;;;;;;-3.42;100.00;100573.94;4851091;58;1144919;-75
2023/12/06 00:36:26;;;;;;;104.43;42.23;;;;;;;-3.39;100.00;100584.66;4850329;57;1145061;-79
2023/12/06 00:41:31;;;;;;;100.67;40.67;;;;;;;-3.34;100.00;100591.88;4798258;59;1144895;-77
2023/12/06 00:46:37;;;;;;;100.13;43.67;;;;;;;-3.31;100.00;100595.69;4781762;59;1145048;-78
2023/12/06 00:51:43;;;;;;;105.83;43.33;;;;;;;-3.23;100.00;100613.22;4783466;59;1145088;-75
2023/12/06 00:56:48;;;;;;;129.63;47.77;;;;;;;-3.23;100.00;100609.34;4802025;59;1145089;-75
2023/12/06 01:01:54;;;;;;;110.30;45.00;;;;;;;-3.26;100.00;100593.44;4783336;59;1145007;-75
2023/12/06 01:06:59;;;;;;;120.90;46.13;;;;;;;-3.27;100.00;100594.31;4783229;59;1154351;-77
2023/12/06 01:12:05;;;;;;;109.50;44.83;;;;;;;-3.30;100.00;100593.52;4802042;59;1145196;-77
2023/12/06 01:17:11;;;;;;;113.07;47.33;;;;;;;-3.31;100.00;100597.84;4731919;59;1145259;-78
2023/12/06 01:22:16;;;;;;;130.90;47.07;;;;;;;-3.30;100.00;100598.69;4850779;58;1144922;-79
2023/12/06 01:27:22;;;;;;;102.10;45.00;;;;;;;-3.28;100.00;100600.81;4868547;58;1145122;-77
2023/12/06 01:32:27;;;;;;;106.73;43.47;;;;;;;-3.24;100.00;100599.87;4849965;58;1144957;-76
2023/12/06 01:37:33;;;;;;;118.47;45.83;;;;;;;-3.22;100.00;100595.09;4836554;58;1145069;-78
2023/12/06 01:42:39;;;;;;;104.37;45.07;;;;;;;-3.23;100.00;100596.41;4797330;59;1144948;-76
2023/12/06 01:47:44;;;;;;;94.57;43.23;;;;;;;-3.25;100.00;100599.02;4783049;59;1145210;-74
2023/12/06 01:52:50;;;;;;;107.10;43.87;;;;;;;-3.27;100.00;100587.00;4783370;59;1143115;-77
2023/12/06 01:57:56;;;;;;;108.37;44.93;;;;;;;-3.32;100.00;100592.25;4802467;58;1144866;-77
2023/12/06 02:03:02;;;;;;;105.40;43.28;;;;;;;-3.30;100.00;100608.59;4783611;58;1144956;-74
2023/12/06 02:08:08;;;;;;;105.67;45.83;;;;;;;-3.30;100.00;100606.45;4783477;58;1145038;-74
2023/12/06 02:13:13;;;;;;;96.10;43.30;;;;;;;-3.32;100.00;100613.38;4804241;57;1145011;-73
2023/12/06 02:18:19;;;;;;;115.80;46.40;;;;;;;-3.33;100.00;100618.14;4851202;58;1143077;-77
2023/12/06 02:23:29;;;;;;;103.87;44.97;;;;;;;-3.29;100.00;100614.62;4850786;58;1145402;-77
2023/12/06 02:28:35;;;;;;;89.17;41.63;;;;;;;-3.26;100.00;100620.59;4849324;58;1145117;-77
2023/12/06 02:33:41;;;;;;;109.73;45.87;;;;;;;-3.25;100.00;100631.35;4869446;58;1142967;-77
2023/12/06 02:38:48;;;;;;;98.23;43.53;;;;;;;-3.26;100.00;100621.03;4818344;58;1145208;-76
2023/12/06 02:43:53;;;;;;;90.53;42.78;;;;;;;-3.23;100.00;100611.92;4780183;59;1143064;-77
2023/12/06 02:48:59;;;;;;;100.40;42.30;;;;;;;-3.26;100.00;100624.91;4801965;59;1142986;-77
2023/12/06 02:54:04;;;;;;;105.63;45.80;;;;;;;-3.27;100.00;100614.16;4783878;58;1144920;-78
2023/12/06 02:59:10;;;;;;;92.63;41.43;;;;;;;-3.24;100.00;100617.54;4783164;58;1145036;-76
2023/12/06 03:04:16;;;;;;;103.20;44.57;;;;;;;-3.20;100.00;100613.13;4802003;59;1142705;-79
2023/12/06 03:09:21;;;;;;;104.33;47.27;;;;;;;-3.20;100.00;100602.34;4783694;58;1144889;-77
2023/12/06 03:14:27;;;;;;;92.13;42.40;;;;;;;-3.19;100.00;100604.49;4832893;58;1144835;-78
2023/12/06 03:19:32;;;;;;;92.23;41.37;;;;;;;-3.21;100.00;100612.75;4789716;60;1142757;-79
2023/12/06 03:24:38;;;;;;;101.13;42.63;;;;;;;-3.16;100.00;100613.49;4808280;60;1142919;-79
2023/12/06 03:29:43;;;;;;;98.63;42.87;;;;;;;-3.14;100.00;100614.31;4788835;60;1145313;-76
2023/12/06 03:34:49;;;;;;;87.90;40.23;;;;;;;-3.14;100.00;100616.05;4812768;58;1142935;-77
2023/12/06 03:39:55;;;;;;;93.77;39.03;;;;;;;-3.15;100.00;100607.44;4814422;59;1149174;-78
2023/12/06 03:45:00;;;;;;;86.70;40.08;;;;;;;-3.16;100.00;100601.85;4779820;60;1142805;-76
2023/12/06 03:50:07;;;;;;;88.05;40.05;;;;;;;-3.16;100.00;100610.05;4785768;59;1143028;-77
2023/12/06 03:55:13;;;;;;;97.90;42.13;;;;;;;-3.19;100.00;100600.61;4830706;57;1143064;-77
2023/12/06 04:00:19;;;;;;;97.37;44.17;;;;;;;-3.20;100.00;100615.28;4812112;57;1142914;-76
2023/12/06 04:05:24;;;;;;;90.57;40.50;;;;;;;-3.18;100.00;100610.08;4811625;58;1142679;-75
2023/12/06 04:10:30;;;;;;;85.73;39.80;;;;;;;-3.19;100.00;100602.76;4811932;59;1143030;-77
2023/12/06 04:15:35;;;;;;;93.80;40.90;;;;;;;-3.24;100.00;100594.70;4819517;59;1142863;-77
2023/12/06 04:20:41;;;;;;;105.90;46.47;;;;;;;-3.26;100.00;100597.31;4832634;59;1143290;-74
2023/12/06 04:25:48;;;;;;;101.97;43.37;;;;;;;-3.30;100.00;100612.91;4752171;60;1144751;-76
2023/12/06 04:30:54;;;;;;;136.97;55.93;;;;;;;-3.33;100.00;100606.50;4755156;60;1147467;-78
2023/12/06 04:36:00;;;;;;;105.90;43.90;;;;;;;-3.37;100.00;100602.30;4703742;59;1144890;-77
2023/12/06 04:41:05;;;;;;;101.03;42.77;;;;;;;-3.46;100.00;100592.97;4712254;60;1145157;-76
2023/12/06 04:46:11;;;;;;;100.90;40.83;;;;;;;-3.44;100.00;100595.53;4696837;60;1145251;-79
2023/12/06 04:51:17;;;;;;;103.50;42.73;;;;;;;-3.48;100.00;100594.72;4581012;60;1145335;-74
2023/12/06 04:56:23;;;;;;;93.27;42.00;;;;;;;-3.47;100.00;100589.97;4588432;61;1144870;-79
2023/12/06 05:01:28;;;;;;;109.23;46.53;;;;;;;-3.49;100.00;100587.00;4628006;60;1143274;-76
2023/12/06 05:06:34;;;;;;;98.43;44.50;;;;;;;-3.49;100.00;100589.58;4568129;61;1145068;-80
2023/12/06 05:11:40;;;;;;;100.07;43.23;;;;;;;-3.54;100.00;100580.64;4559610;62;1143180;-76
2023/12/06 05:16:45;;;;;;;101.37;45.73;;;;;;;-3.56;100.00;100592.30;4782598;58;1145154;-78
2023/12/06 05:21:53;;;;;;;102.67;44.30;;;;;;;-3.55;100.00;100585.40;4677133;60;1145099;-75
2023/12/06 05:26:58;;;;;;;97.77;43.60;;;;;;;-3.56;100.00;100594.03;4661414;60;1145120;-80
2023/12/06 05:32:04;;;;;;;105.10;48.00;;;;;;;-3.56;100.00;100597.91;4681673;57;1142851;-77
2023/12/06 05:37:10;;;;;;;162.63;65.00;;;;;;;-3.56;100.00;100590.16;4727601;60;1145054;-75
2023/12/06 05:42:16;;;;;;;118.97;52.67;;;;;;;-3.63;100.00;100589.41;4648577;60;1145264;-74
2023/12/06 05:47:22;;;;;;;105.10;47.43;;;;;;;-3.70;100.00;100592.15;4645590;60;1145271;-78
2023/12/06 05:52:27;;;;;;;101.77;43.40;;;;;;;-3.75;100.00;100600.41;4692091;59;1145108;-77
2023/12/06 05:57:33;;;;;;;106.60;47.13;;;;;;;-3.80;100.00;100604.36;4695467;61;1145345;-76
2023/12/06 06:02:39;;;;;;;121.00;51.17;;;;;;;-3.86;100.00;100605.78;4804703;59;1145085;-75
2023/12/06 06:07:45;;;;;;;119.30;51.55;;;;;;;-3.90;100.00;100610.14;4705136;61;1145262;-77
2023/12/06 06:12:51;;;;;;;126.10;52.50;;;;;;;-3.97;100.00;100616.71;4746045;59;1145118;-76
2023/12/06 06:17:56;;;;;;;134.87;55.47;;;;;;;-3.99;100.00;100631.41;4638843;59;1144934;-76
2023/12/06 06:23:02;;;;;;;118.30;51.80;;;;;;;-4.00;100.00;100637.45;4710091;59;1145061;-76
2023/12/06 06:28:07;;;;;;;107.30;45.87;;;;;;;-4.04;100.00;100644.83;4728725;58;1145192;-76
2023/12/06 06:33:13;;;;;;;123.03;49.33;;;;;;;-4.10;100.00;100647.06;4618831;61;1145394;-76
2023/12/06 06:38:18;;;;;;;124.60;51.70;;;;;;;-4.13;100.00;100654.88;4674081;59;1145106;-74
2023/12/06 06:43:24;;;;;;;175.53;70.87;;;;;;;-4.21;100.00;100660.58;4752567;60;1145275;-76
2023/12/06 06:48:31;;;;;;;192.20;74.97;;;;;;;-4.25;100.00;100672.69;4687282;59;1145230;-75
2023/12/06 06:53:36;;;;;;;140.13;56.87;;;;;;;-4.27;100.00;100670.99;4732062;61;1145274;-76
2023/12/06 06:58:42;;;;;;;151.63;60.93;;;;;;;-4.25;100.00;100665.38;4712609;59;1145127;-76
2023/12/06 07:03:47;;;;;;;134.77;56.87;;;;;;;-4.23;100.00;100667.50;4728040;60;1145097;-75
2023/12/06 07:08:53;;;;;;;122.23;50.30;;;;;;;-4.22;100.00;100671.78;4775159;59;1145001;-78
2023/12/06 07:13:59;;;;;;;121.40;51.20;;;;;;;-4.25;100.00;100679.57;4733028;59;1144946;-76
2023/12/06 07:19:04;;;;;;;117.27;46.17;;;;;;;-4.26;100.00;100684.31;4675362;60;1145159;-76
2023/12/06 07:24:11;;;;;;;125.70;48.27;;;;;;;-4.24;100.00;100677.41;4665654;59;1145161;-76
2023/12/06 07:29:17;;;;;;;149.27;58.20;;;;;;;-4.26;100.00;100680.01;4742671;60;1145103;-77
2023/12/06 07:34:22;;;;;;;136.32;53.23;;;;;;;-4.23;100.00;100689.45;4723939;59;1144980;-77
2023/12/06 07:39:28;;;;;;;137.67;53.77;;;;;;;-4.26;100.00;100695.50;4708947;59;1145118;-76
2023/12/06 07:44:34;;;;;;;131.50;52.83;;;;;;;-4.27;100.00;100705.41;4651761;59;1145017;-76
2023/12/06 07:49:39;;;;;;;155.60;61.43;;;;;;;-4.30;100.00;100698.17;4671045;60;1145086;-77
2023/12/06 07:54:46;;;;;;;128.97;51.07;;;;;;;-4.26;100.00;100708.84;4693135;60;1145100;-76
2023/12/06 07:59:52;;;;;;;144.37;51.63;;;;;;;-4.24;100.00;100709.69;4647908;60;1145410;-77
2023/12/06 08:04:57;;;;;;;120.63;46.00;;;;;;;-4.21;100.00;100703.19;4667255;60;1145027;-77
2023/12/06 08:10:12;;;;;;;145.40;56.35;;;;;;;-4.18;100.00;100710.91;4648497;60;1144984;-76
2023/12/06 08:15:10;;;;;;;126.37;46.70;;;;;;;-4.17;100.00;100718.21;4740165;60;1145246;-77
2023/12/06 08:20:16;;;;;;;156.82;58.70;;;;;;;-4.17;100.00;100707.45;4825922;59;1145151;-76
2023/12/06 08:25:22;;;;;;;223.23;73.00;;;;;;;-4.15;100.00;100697.09;4758469;57;1144816;-77
2023/12/06 08:30:28;;;;;;;167.53;56.80;;;;;;;-4.09;100.00;100700.42;4771229;58;1145081;-76
2023/12/06 08:35:33;;;;;;;167.50;60.98;;;;;;;-3.98;100.00;100705.02;4750199;60;1145484;-77
2023/12/06 08:40:39;;;;;;;202.83;73.87;;;;;;;-3.89;100.00;100705.30;4768587;60;1144917;-77
2023/12/06 08:45:45;;;;;;;131.37;52.75;;;;;;;-3.79;100.00;100707.28;4734307;58;1145169;-78
2023/12/06 08:50:50;;;;;;;143.10;54.90;;;;;;;-3.74;100.00;100702.47;4757213;59;1144854;-76
2023/12/06 08:55:56;;;;;;;152.43;55.30;;;;;;;-3.68;100.00;100709.27;4828944;59;1145232;-77
2023/12/06 09:01:02;;;;;;;147.60;55.80;;;;;;;-3.65;100.00;100710.48;4783504;59;1145268;-76
2023/12/06 09:06:08;;;;;;;184.83;64.97;;;;;;;-3.68;100.00;100714.44;4778142;59;1145250;-77
2023/12/06 09:11:21;;;;;;;156.13;58.20;;;;;;;-3.62;100.00;100720.78;4801129;59;1145355;-76
2023/12/06 09:16:26;;;;;;;137.90;51.87;;;;;;;-3.63;100.00;100718.64;4781842;59;1144834;-77
2023/12/06 09:21:44;;;;;;;128.10;49.57;;;;;;;-3.62;100.00;100722.93;4783380;59;1145073;-78
2023/12/06 09:26:50;;;;;;;141.33;52.33;;;;;;;-3.61;100.00;100732.39;4823156;57;1145078;-76
2023/12/06 09:31:56;;;;;;;165.35;59.73;;;;;;;-3.55;100.00;100718.52;4851251;58;1145020;-77
2023/12/06 09:37:01;;;;;;;147.53;53.93;;;;;;;-3.53;100.00;100722.38;4850534;58;1145067;-77
2023/12/06 09:42:07;;;;;;;151.30;53.55;;;;;;;-3.53;100.00;100715.92;4869686;58;1144981;-77
2023/12/06 09:47:13;;;;;;;161.88;54.30;;;;;;;-3.48;100.00;100721.41;4850384;58;1145160;-77
2023/12/06 09:52:23;;;;;;;153.78;55.20;;;;;;;-3.47;100.00;100714.50;4850352;58;1145023;-76
2023/12/06 09:57:28;;;;;;;138.20;50.53;;;;;;;-3.43;100.00;100717.02;4805788;58;1145119;-76
2023/12/06 10:02:57;;;;;;;149.33;54.33;;;;;;;-3.39;100.00;100722.55;4797185;59;1144882;-76
2023/12/06 10:08:02;;;;;;;141.93;50.67;;;;;;;-3.36;100.00;100717.30;4783172;59;1145029;-77
2023/12/06 10:13:08;;;;;;;175.17;62.57;;;;;;;-3.30;100.00;100709.45;4783251;59;1145559;-77
2023/12/06 10:18:15;;;;;;;139.57;54.00;;;;;;;-3.26;100.00;100702.50;4790831;59;1171613;-76
2023/12/06 10:23:21;;;;;;;144.07;51.57;;;;;;;-3.25;100.00;100690.84;4767181;59;1144972;-77
2023/12/06 10:28:27;;;;;;;145.30;50.07;;;;;;;-3.21;100.00;100688.58;4769936;59;1145366;-78
2023/12/06 10:33:33;;;;;;;143.65;51.37;;;;;;;-3.19;100.00;100698.46;4744962;59;1145041;-76
2023/12/06 10:38:46;;;;;;;151.23;54.00;;;;;;;-3.16;100.00;100692.38;4750923;59;1145486;-77
2023/12/06 10:43:49;;;;;;;138.50;49.13;;;;;;;-3.13;100.00;100687.59;4716131;60;1145364;-77
2023/12/06 10:48:58;;;;;;;155.07;54.88;;;;;;;-3.15;100.00;100681.16;4719162;60;1145171;-75
2023/12/06 10:54:05;;;;;;;159.30;60.20;;;;;;;-3.15;100.00;100676.42;4749561;59;1145404;-76
2023/12/06 10:59:11;;;;;;;214.37;74.10;;;;;;;-3.14;100.00;100663.47;4746991;59;1145137;-77
2023/12/06 11:04:17;;;;;;;144.97;54.63;;;;;;;-3.08;100.00;100658.63;4722960;59;1145140;-77
2023/12/06 11:09:52;;;;;;;132.13;50.83;;;;;;;-3.05;100.00;100660.69;4739086;60;1145172;-77
2023/12/06 11:15:18;;;;;;;139.57;53.23;;;;;;;-3.06;100.00;100665.48;4673935;60;1144963;-76
2023/12/06 11:20:25;;;;;;;122.37;48.83;;;;;;;-3.04;100.00;100668.00;4751572;59;1145272;-77
2023/12/06 11:25:31;;;;;;;131.73;50.60;;;;;;;-3.00;100.00;100662.75;4808361;59;1145241;-77
2023/12/06 11:30:46;;;;;;;135.10;52.23;;;;;;;-3.01;100.00;100646.81;4822333;59;1145229;-76
2023/12/06 11:35:56;;;;;;;125.33;51.80;;;;;;;-2.98;100.00;100653.66;4801086;59;1145205;-76
2023/12/06 11:41:04;;;;;;;111.43;45.07;;;;;;;-2.93;100.00;100647.97;4798372;58;1145105;-77
2023/12/06 11:46:12;;;;;;;136.47;51.60;;;;;;;-2.88;100.00;100636.62;4764722;59;1145582;-78
2023/12/06 11:51:25;;;;;;;128.75;52.48;;;;;;;-2.89;100.00;100639.23;4732691;60;1145239;-76
2023/12/06 11:56:30;;;;;;;;;;;;;;;-2.87;100.00;100636.17;4717059;60;1145253;-77
2023/12/06 12:01:36;;;;;;;140.50;55.48;;;;;;;-2.87;100.00;100637.47;4729953;59;976334;-77
2023/12/06 12:06:42;;;;;;;138.72;51.30;;;;;;;-2.85;100.00;100644.77;4731547;59;1143361;-77
2023/12/06 12:11:48;;;;;;;141.10;53.33;;;;;;;-2.82;100.00;100643.41;4727297;60;1145449;-77
2023/12/06 12:16:54;;;;;;;139.05;52.65;;;;;;;-2.78;100.00;100650.23;4728039;59;1144926;-76
2023/12/06 12:22:04;;;;;;;151.00;59.93;;;;;;;-2.75;100.00;100644.16;4739667;59;1145141;-76
2023/12/06 12:27:10;;;;;;;134.80;54.97;;;;;;;-2.70;100.00;100644.88;4702186;59;1144968;-78
2023/12/06 12:32:16;;;;;;;131.47;52.50;;;;;;;-2.68;100.00;100643.97;4722947;59;1145097;-76
2023/12/06 12:37:22;;;;;;;134.77;52.30;;;;;;;-2.67;100.00;100644.83;4745911;59;1145145;-78
2023/12/06 12:42:28;;;;;;;131.97;54.07;;;;;;;-2.68;100.00;100636.64;4763337;59;1144812;-76
2023/12/06 12:47:34;;;;;;;128.23;51.75;;;;;;;-2.65;100.00;100637.44;4782066;60;1145316;-77
2023/12/06 12:52:39;;;;;;;121.30;45.23;;;;;;;-2.64;100.00;100640.44;4777733;60;1144999;-77
2023/12/06 12:57:48;;;;;;;127.17;51.40;;;;;;;-2.62;100.00;100640.41;4791236;59;1145077;-77
2023/12/06 13:02:58;;;;;;;139.93;51.87;;;;;;;-2.61;100.00;100639.53;4750602;60;1145246;-78
2023/12/06 13:08:04;;;;;;;133.50;50.97;;;;;;;-2.60;100.00;100647.27;4797510;60;1145035;-78
2023/12/06 13:13:09;;;;;;;129.47;52.63;;;;;;;-2.58;100.00;100642.88;4768950;59;1145236;-78
2023/12/06 13:18:15;;;;;;;119.97;49.40;;;;;;;-2.51;100.00;100640.58;4763567;59;1144846;-79
2023/12/06 13:23:20;;;;;;;127.93;52.80;;;;;;;-2.46;100.00;100640.92;4786869;59;1173958;-83
2023/12/06 13:28:31;;;;;;;122.87;48.67;;;;;;;-2.46;100.00;100640.48;4791101;60;1202058;-78
2023/12/06 13:33:38;;;;;;;137.50;55.90;;;;;;;-2.45;100.00;100645.22;4639516;60;1145379;-79
2023/12/06 13:38:44;;;;;;;126.05;50.90;;;;;;;-2.41;100.00;100649.42;4682855;60;1144827;-82
2023/12/06 13:43:49;;;;;;;125.33;51.73;;;;;;;-2.40;100.00;100648.53;4649622;60;1145310;-84
2023/12/06 13:48:55;;;;;;;124.47;52.60;;;;;;;-2.38;100.00;100646.33;4657804;61;1145237;-70
2023/12/06 13:54:01;;;;;;;139.82;55.60;;;;;;;-2.37;100.00;100651.06;4670399;60;1145571;-72
2023/12/06 13:59:06;;;;;;;138.70;52.55;;;;;;;-2.35;100.00;100653.17;4643604;61;1145546;-71
2023/12/06 14:04:12;;;;;;;176.40;61.10;;;;;;;-2.32;100.00;100663.47;4653464;60;1145049;-77
2023/12/06 14:09:18;;;;;;;151.10;57.67;;;;;;;-2.28;100.00;100663.79;4660058;60;1145232;-78
2023/12/06 14:14:24;;;;;;;167.33;63.57;;;;;;;-2.24;100.00;100667.58;4648274;60;1145338;-78
2023/12/06 14:19:30;;;;;;;129.40;49.53;;;;;;;-2.21;100.00;100672.70;4659597;60;1145060;-78
2023/12/06 14:24:36;;;;;;;137.37;58.45;;;;;;;-2.20;100.00;100680.03;4671198;60;1145172;-79
2023/12/06 14:29:41;;;;;;;120.70;51.20;;;;;;;-2.22;100.00;100677.91;4719047;60;1145217;-78
2023/12/06 14:34:47;;;;;;;122.90;51.53;;;;;;;-2.22;100.00;100674.87;4767092;59;1145383;-78
2023/12/06 14:39:52;;;;;;;137.40;50.50;;;;;;;-2.23;100.00;100674.91;4710275;59;1145269;-79
2023/12/06 14:44:58;;;;;;;131.73;54.17;;;;;;;-2.25;100.00;100680.13;4749656;60;1145123;-79
2023/12/06 14:50:05;;;;;;;116.03;44.13;;;;;;;-2.24;100.00;100686.16;4712021;59;1145090;-78
2023/12/06 14:55:11;;;;;;;137.97;55.33;;;;;;;-2.21;100.00;100686.09;4703314;60;1145475;-78
2023/12/06 15:00:18;;;;;;;169.20;66.90;;;;;;;-2.21;100.00;100691.28;4738292;59;1145449;-78
2023/12/06 15:05:23;;;;;;;140.30;56.07;;;;;;;-2.22;100.00;100687.83;4756193;60;1145193;-78
2023/12/06 15:10:29;;;;;;;145.90;56.53;;;;;;;-2.23;100.00;100698.23;4721736;59;1145082;-78
2023/12/06 15:15:35;;;;;;;182.12;75.35;;;;;;;-2.23;100.00;100704.26;4708329;61;1145037;-79
2023/12/06 15:20:41;;;;;;;146.83;56.27;;;;;;;-2.20;100.00;100711.97;4759013;60;1144886;-69
2023/12/06 15:25:46;;;;;;;131.77;54.20;;;;;;;-2.19;100.00;100711.08;4660345;59;1261525;-71
2023/12/06 15:30:52;;;;;;;125.70;51.77;;;;;;;-2.22;100.00;100713.73;4667454;60;1145222;-71
2023/12/06 15:35:58;;;;;;;128.80;55.30;;;;;;;-2.23;100.00;100718.51;4695512;60;1145672;-70
2023/12/06 15:41:03;;;;;;;119.23;51.80;;;;;;;-2.23;100.00;100719.80;4812638;58;1145406;-70
2023/12/06 15:46:09;;;;;;;128.10;50.55;;;;;;;-2.21;100.00;100718.03;4737511;59;1145716;-71
2023/12/06 15:51:15;;;;;;;130.67;48.20;;;;;;;-2.23;100.00;100715.06;4733745;60;1144896;-69
2023/12/06 15:56:20;;;;;;;124.07;48.10;;;;;;;-2.20;100.00;100710.67;4544409;62;1145092;-70
2023/12/06 16:01:26;;;;;;;123.95;49.27;;;;;;;-2.20;100.00;100712.41;4604983;61;1144621;-71
2023/12/06 16:06:31;;;;;;;144.97;52.73;;;;;;;-2.17;100.00;100718.83;4603124;61;1145318;-69
2023/12/06 16:11:37;;;;;;;127.13;50.57;;;;;;;-2.19;100.00;100720.16;4616770;61;1145137;-71
2023/12/06 16:16:42;;;;;;;121.50;51.73;;;;;;;-2.20;100.00;100734.44;4616488;62;1145026;-77
2023/12/06 16:21:48;;;;;;;146.80;63.00;;;;;;;-2.19;100.00;100740.88;4606243;61;1144723;-77
2023/12/06 16:26:53;;;;;;;126.93;49.57;;;;;;;-2.15;100.00;100743.82;4747623;60;1144839;-77
2023/12/06 16:31:59;;;;;;;134.27;49.87;;;;;;;-2.12;100.00;100753.23;4709993;60;1145044;-79
2023/12/06 16:37:05;;;;;;;147.63;58.63;;;;;;;-2.09;100.00;100766.58;4708071;60;1144901;-77
2023/12/06 16:42:11;;;;;;;128.82;53.50;;;;;;;-2.07;100.00;100764.80;4769515;59;1154048;-78
2023/12/06 16:47:17;;;;;;;148.38;53.23;;;;;;;-2.07;100.00;100764.36;4782533;59;1145379;-76
2023/12/06 16:52:22;;;;;;;150.53;54.57;;;;;;;-2.06;100.00;100771.25;4782706;58;1145546;-78
2023/12/06 16:57:30;;;;;;;156.20;54.88;;;;;;;-2.04;100.00;100765.59;4795323;59;1145559;-79
2023/12/06 17:02:35;;;;;;;134.77;51.67;;;;;;;-2.11;100.00;100756.23;4800075;58;1144939;-78
2023/12/06 17:07:43;;;;;;;158.23;60.30;;;;;;;-2.05;100.00;100761.74;4756794;58;1145215;-77
2023/12/06 17:12:48;;;;;;;153.83;54.10;;;;;;;-2.05;100.00;100764.33;4849601;58;1145181;-76
2023/12/06 17:17:53;;;;;;;153.97;54.90;;;;;;;-2.04;100.00;100766.04;4869355;58;1145039;-76
2023/12/06 17:22:59;;;;;;;173.97;75.27;;;;;;;-2.03;100.00;100766.45;4816238;58;1144957;-76
2023/12/06 17:28:05;;;;;;;146.47;63.75;;;;;;;-2.02;100.00;100767.72;4779286;57;1145205;-76
2023/12/06 17:33:10;;;;;;;143.03;56.37;;;;;;;-2.02;100.00;100774.64;4794052;59;1145254;-78
2023/12/06 17:38:16;;;;;;;156.65;57.55;;;;;;;-2.00;100.00;100766.39;4783422;58;1144875;-77
2023/12/06 17:43:22;;;;;;;162.60;61.97;;;;;;;-2.01;100.00;100769.87;4784042;59;1145052;-77
2023/12/06 17:48:28;;;;;;;133.18;51.10;;;;;;;-2.00;100.00;100782.80;4789488;58;1145129;-78
2023/12/06 17:53:34;;;;;;;127.30;51.03;;;;;;;-1.98;100.00;100787.47;4818059;58;1145025;-77
2023/12/06 17:58:40;;;;;;;150.70;52.03;;;;;;;-1.99;100.00;100788.39;4779150;58;1144691;-77
2023/12/06 18:03:45;;;;;;;167.00;66.77;;;;;;;-2.00;100.00;100793.60;4782626;58;1145023;-77
2023/12/06 18:08:51;;;;;;;177.17;66.37;;;;;;;-2.02;100.00;100796.22;4810881;59;1145169;-77
2023/12/06 18:13:56;;;;;;;162.23;63.57;;;;;;;-2.00;100.00;100797.05;4786496;58;1145013;-77
2023/12/06 18:19:02;;;;;;;147.13;57.03;;;;;;;-1.99;100.00;100790.98;4768111;59;1145022;-77
2023/12/06 18:24:09;;;;;;;136.72;52.67;;;;;;;-1.98;100.00;100799.58;4850598;59;1144904;-78
2023/12/06 18:29:14;;;;;;;158.60;57.23;;;;;;;-1.97;100.00;100807.32;4851270;59;1145132;-76
2023/12/06 18:34:20;;;;;;;149.05;58.50;;;;;;;-1.95;100.00;100807.29;4854694;59;1145032;-76
2023/12/06 18:39:26;;;;;;;132.43;52.43;;;;;;;-1.94;100.00;100812.89;4700236;59;1145052;-70
2023/12/06 18:44:31;;;;;;;135.20;51.47;;;;;;;-1.97;100.00;100808.62;4666017;60;1145173;-70
2023/12/06 18:49:37;;;;;;;133.27;49.77;;;;;;;-1.96;100.00;100815.95;4808705;59;1145279;-77
2023/12/06 18:54:42;;;;;;;137.80;52.93;;;;;;;-1.99;100.00;100818.19;4815605;59;1144862;-78
2023/12/06 18:59:48;;;;;;;135.13;51.83;;;;;;;-1.97;100.00;100821.58;4764700;59;1145177;-77
2023/12/06 19:04:53;;;;;;;137.33;50.07;;;;;;;-1.96;100.00;100823.28;4747503;59;1145171;-76
2023/12/06 19:09:59;;;;;;;151.10;53.27;;;;;;;-1.98;100.00;100817.72;4746788;60;1145285;-73
2023/12/06 19:15:06;;;;;;;168.93;62.57;;;;;;;-1.96;100.00;100827.61;4727924;60;1145009;-76
2023/12/06 19:20:12;;;;;;;160.13;56.37;;;;;;;-1.98;100.00;100834.13;4728320;59;1145184;-77
2023/12/06 19:25:18;;;;;;;176.60;73.55;;;;;;;-2.00;100.00;100851.91;4747278;60;1145373;-75
2023/12/06 19:30:24;;;;;;;142.50;59.30;;;;;;;-2.02;100.00;100848.05;4728850;60;1145306;-76
2023/12/06 19:35:29;;;;;;;148.00;57.23;;;;;;;-1.96;100.00;100853.53;4728518;60;1145180;-76
2023/12/06 19:40:35;;;;;;;144.53;52.48;;;;;;;-1.96;100.00;100855.68;4748133;59;1145153;-76
2023/12/06 19:45:41;;;;;;;129.03;48.80;;;;;;;-1.99;100.00;100855.77;4741831;59;1144972;-76
2023/12/06 19:50:48;;;;;;;143.13;50.23;;;;;;;-2.01;100.00;100861.42;4732458;59;1145068;-76
2023/12/06 19:55:53;;;;;;;147.13;51.93;;;;;;;-2.03;100.00;100864.48;4722885;59;1145003;-76
2023/12/06 20:00:59;;;;;;;148.53;55.15;;;;;;;-2.02;100.00;100868.78;4772237;60;1145048;-76
2023/12/06 20:06:05;;;;;;;137.43;51.83;;;;;;;-2.01;100.00;100869.20;4811711;60;1144879;-76
2023/12/06 20:11:12;;;;;;;150.97;53.40;;;;;;;-2.00;100.00;100868.76;4815391;59;1144893;-77
2023/12/06 20:16:19;;;;;;;149.82;52.27;;;;;;;-2.00;100.00;100870.05;4817316;59;1144863;-76
2023/12/06 20:21:26;;;;;;;143.37;49.77;;;;;;;-2.01;100.00;100876.12;4810348;60;1145026;-76
2023/12/06 20:26:31;;;;;;;162.13;58.60;;;;;;;-2.03;100.00;100886.52;4811118;59;1145075;-75
2023/12/06 20:31:37;;;;;;;153.63;52.27;;;;;;;-2.05;100.00;100890.87;4810466;58;1144879;-74
2023/12/06 20:36:42;;;;;;;143.27;51.27;;;;;;;-2.05;100.00;100892.61;4825411;59;1145010;-74
2023/12/06 20:41:48;;;;;;;167.20;56.93;;;;;;;-2.02;100.00;100898.59;4779783;59;1145091;-75
2023/12/06 20:46:54;;;;;;;158.97;55.07;;;;;;;-2.04;100.00;100902.94;4785977;58;1145217;-75
2023/12/06 20:52:00;;;;;;;158.05;57.50;;;;;;;-2.01;100.00;100903.33;4785259;58;1144940;-74
2023/12/06 20:57:06;;;;;;;139.00;53.53;;;;;;;-1.99;100.00;100906.75;4757108;59;1145198;-75
2023/12/06 21:02:13;;;;;;;169.80;61.53;;;;;;;-2.00;100.00;100915.41;4784321;57;1145009;-76
2023/12/06 21:07:19;;;;;;;149.70;56.77;;;;;;;-2.00;100.00;100921.45;4782540;59;1145182;-75
2023/12/06 21:12:25;;;;;;;162.67;55.77;;;;;;;-2.02;100.00;100920.62;4778049;57;1145339;-76
2023/12/06 21:17:31;;;;;;;158.93;56.50;;;;;;;-2.03;100.00;100924.53;4783183;58;1145035;-76
2023/12/06 21:22:36;;;;;;;140.97;47.03;;;;;;;-2.02;100.00;100923.21;4781779;59;1145421;-76
2023/12/06 21:27:42;;;;;;;156.73;57.83;;;;;;;-2.04;100.00;100925.41;4802643;59;1145117;-75
2023/12/06 21:32:48;;;;;;;153.63;56.57;;;;;;;-2.04;100.00;100921.09;4783160;59;1145012;-74
2023/12/06 21:37:53;;;;;;;165.37;57.53;;;;;;;-1.99;100.00;100921.00;4782059;59;1145135;-72
2023/12/06 21:42:59;;;;;;;166.87;59.37;;;;;;;-2.00;100.00;100922.74;4801879;58;1145125;-72
2023/12/06 21:48:04;;;;;;;174.63;61.33;;;;;;;-2.02;100.00;100920.62;4781147;59;1145202;-72
2023/12/06 21:53:10;;;;;;;163.87;61.63;;;;;;;-2.01;100.00;100922.77;4775783;57;1145143;-72
2023/12/06 21:58:15;;;;;;;149.90;57.50;;;;;;;-2.04;100.00;100920.23;4796832;59;1145222;-72
2023/12/06 22:03:21;;;;;;;178.30;68.50;;;;;;;-2.06;100.00;100924.14;4757137;58;1145373;-72
2023/12/06 22:08:26;;;;;;;168.17;60.50;;;;;;;-2.04;100.00;100931.45;4713801;58;1145118;-72